sensor_id;sensor_type;location;lat;lon;timestamp;P1;durP1;ratioP1;P2;durP2;ratioP2
58338;SDS011;68636;52.704;6.536;2023-12-20T00:01:35;7.53;;;0.75;;
58338;SDS011;68636;52.704;6.536;2023-12-20T00:04:04;11.95;;;0.85;;
58338;SDS011;68636;52.704;6.536;2023-12-20T00:06:30;9.45;;;0.70;;
58338;SDS011;68636;52.704;6.536;2023-12-20T00:08:56;10.07;;;0.90;;
58338;SDS011;68636;52.704;6.536;2023-12-20T00:11:25;7.95;;;0.80;;
58338;SDS011;68636;52.704;6.536;2023-12-20T00:13:51;13.68;;;1.02;;
58338;SDS011;68636;52.704;6.536;2023-12-20T00:16:18;13.55;;;0.68;;
58338;SDS011;68636;52.704;6.536;2023-12-20T00:18:44;9.53;;;0.60;;
58338;SDS011;68636;52.704;6.536;2023-12-20T00:21:10;11.27;;;0.93;;
58338;SDS011;68636;52.704;6.536;2023-12-20T00:23:36;13.00;;;0.60;;
58338;SDS011;68636;52.704;6.536;2023-12-20T00:26:02;7.88;;;0.65;;
58338;SDS011;68636;52.704;6.536;2023-12-20T00:28:28;16.27;;;0.90;;
58338;SDS011;68636;52.704;6.536;2023-12-20T00:30:54;11.13;;;0.75;;
58338;SDS011;68636;52.704;6.536;2023-12-20T00:33:21;11.27;;;0.63;;
58338;SDS011;68636;52.704;6.536;2023-12-20T00:35:47;8.27;;;0.70;;
58338;SDS011;68636;52.704;6.536;2023-12-20T00:38:19;11.55;;;0.90;;
58338;SDS011;68636;52.704;6.536;2023-12-20T00:40:45;8.10;;;1.05;;
58338;SDS011;68636;52.704;6.536;2023-12-20T00:43:12;8.82;;;0.43;;
58338;SDS011;68636;52.704;6.536;2023-12-20T00:45:38;11.75;;;0.77;;
58338;SDS011;68636;52.704;6.536;2023-12-20T00:48:04;10.00;;;0.95;;
58338;SDS011;68636;52.704;6.536;2023-12-20T00:50:30;16.00;;;0.90;;
58338;SDS011;68636;52.704;6.536;2023-12-20T00:52:56;8.50;;;0.65;;
58338;SDS011;68636;52.704;6.536;2023-12-20T00:55:22;10.45;;;0.70;;
58338;SDS011;68636;52.704;6.536;2023-12-20T00:57:48;15.93;;;0.80;;
58338;SDS011;68636;52.704;6.536;2023-12-20T01:00:15;18.75;;;1.50;;
58338;SDS011;68636;52.704;6.536;2023-12-20T01:02:41;13.45;;;0.82;;
58338;SDS011;68636;52.704;6.536;2023-12-20T01:05:07;8.75;;;0.60;;
58338;SDS011;68636;52.704;6.536;2023-12-20T01:07:34;13.77;;;1.40;;
58338;SDS011;68636;52.704;6.536;2023-12-20T01:10:00;6.03;;;0.80;;
58338;SDS011;68636;52.704;6.536;2023-12-20T01:12:26;19.45;;;1.20;;
58338;SDS011;68636;52.704;6.536;2023-12-20T01:14:52;10.88;;;0.90;;
58338;SDS011;68636;52.704;6.536;2023-12-20T01:17:18;13.07;;;0.70;;
58338;SDS011;68636;52.704;6.536;2023-12-20T01:19:44;15.27;;;1.63;;
58338;SDS011;68636;52.704;6.536;2023-12-20T01:22:11;14.77;;;0.82;;
58338;SDS011;68636;52.704;6.536;2023-12-20T01:24:37;14.30;;;0.80;;
58338;SDS011;68636;52.704;6.536;2023-12-20T01:27:03;18.00;;;0.98;;
58338;SDS011;68636;52.704;6.536;2023-12-20T01:29:29;13.82;;;1.08;;
58338;SDS011;68636;52.704;6.536;2023-12-20T01:31:55;14.07;;;1.10;;
58338;SDS011;68636;52.704;6.536;2023-12-20T01:34:21;12.75;;;1.00;;
58338;SDS011;68636;52.704;6.536;2023-12-20T01:36:47;20.35;;;1.77;;
58338;SDS011;68636;52.704;6.536;2023-12-20T01:39:13;10.90;;;0.93;;
58338;SDS011;68636;52.704;6.536;2023-12-20T01:41:39;14.02;;;1.77;;
58338;SDS011;68636;52.704;6.536;2023-12-20T01:44:05;13.57;;;1.25;;
58338;SDS011;68636;52.704;6.536;2023-12-20T01:46:31;9.73;;;0.80;;
58338;SDS011;68636;52.704;6.536;2023-12-20T01:48:58;12.77;;;1.15;;
58338;SDS011;68636;52.704;6.536;2023-12-20T01:51:24;16.52;;;1.10;;
58338;SDS011;68636;52.704;6.536;2023-12-20T01:53:52;11.95;;;1.10;;
58338;SDS011;68636;52.704;6.536;2023-12-20T01:56:19;12.27;;;1.10;;
58338;SDS011;68636;52.704;6.536;2023-12-20T02:01:12;11.73;;;0.93;;
58338;SDS011;68636;52.704;6.536;2023-12-20T02:03:41;12.45;;;1.02;;
58338;SDS011;68636;52.704;6.536;2023-12-20T02:06:07;12.65;;;1.02;;
58338;SDS011;68636;52.704;6.536;2023-12-20T02:08:34;13.38;;;0.93;;
58338;SDS011;68636;52.704;6.536;2023-12-20T02:11:00;14.18;;;1.20;;
58338;SDS011;68636;52.704;6.536;2023-12-20T02:13:27;13.90;;;1.27;;
58338;SDS011;68636;52.704;6.536;2023-12-20T02:15:54;16.42;;;0.90;;
58338;SDS011;68636;52.704;6.536;2023-12-20T02:20:46;19.23;;;1.27;;
58338;SDS011;68636;52.704;6.536;2023-12-20T02:23:12;6.57;;;0.70;;
58338;SDS011;68636;52.704;6.536;2023-12-20T02:25:38;12.88;;;1.00;;
58338;SDS011;68636;52.704;6.536;2023-12-20T02:28:05;11.68;;;1.05;;
58338;SDS011;68636;52.704;6.536;2023-12-20T02:30:31;13.77;;;1.38;;
58338;SDS011;68636;52.704;6.536;2023-12-20T02:32:59;10.73;;;0.80;;
58338;SDS011;68636;52.704;6.536;2023-12-20T02:35:25;16.83;;;1.35;;
58338;SDS011;68636;52.704;6.536;2023-12-20T02:37:51;13.52;;;0.98;;
58338;SDS011;68636;52.704;6.536;2023-12-20T02:40:17;11.23;;;1.02;;
58338;SDS011;68636;52.704;6.536;2023-12-20T02:42:43;9.00;;;0.88;;
58338;SDS011;68636;52.704;6.536;2023-12-20T02:45:09;13.15;;;1.05;;
58338;SDS011;68636;52.704;6.536;2023-12-20T02:47:35;14.45;;;1.13;;
58338;SDS011;68636;52.704;6.536;2023-12-20T02:50:02;12.57;;;0.82;;
58338;SDS011;68636;52.704;6.536;2023-12-20T02:52:28;12.52;;;1.45;;
58338;SDS011;68636;52.704;6.536;2023-12-20T02:54:55;14.40;;;1.05;;
58338;SDS011;68636;52.704;6.536;2023-12-20T02:57:21;13.27;;;1.52;;
58338;SDS011;68636;52.704;6.536;2023-12-20T02:59:47;19.77;;;1.60;;
58338;SDS011;68636;52.704;6.536;2023-12-20T03:02:13;14.40;;;2.50;;
58338;SDS011;68636;52.704;6.536;2023-12-20T03:04:39;18.98;;;1.98;;
58338;SDS011;68636;52.704;6.536;2023-12-20T03:07:05;19.20;;;1.52;;
58338;SDS011;68636;52.704;6.536;2023-12-20T03:09:31;17.52;;;1.67;;
58338;SDS011;68636;52.704;6.536;2023-12-20T03:11:57;16.77;;;2.40;;
58338;SDS011;68636;52.704;6.536;2023-12-20T03:14:23;24.50;;;1.45;;
58338;SDS011;68636;52.704;6.536;2023-12-20T03:16:49;17.40;;;1.63;;
58338;SDS011;68636;52.704;6.536;2023-12-20T03:19:16;27.30;;;2.13;;
58338;SDS011;68636;52.704;6.536;2023-12-20T03:21:43;18.67;;;2.08;;
58338;SDS011;68636;52.704;6.536;2023-12-20T03:24:09;19.48;;;1.48;;
58338;SDS011;68636;52.704;6.536;2023-12-20T03:26:35;17.55;;;1.30;;
58338;SDS011;68636;52.704;6.536;2023-12-20T03:29:01;24.63;;;1.85;;
58338;SDS011;68636;52.704;6.536;2023-12-20T03:31:27;19.25;;;1.25;;
58338;SDS011;68636;52.704;6.536;2023-12-20T03:33:53;19.27;;;2.45;;
58338;SDS011;68636;52.704;6.536;2023-12-20T03:36:19;19.70;;;2.17;;
58338;SDS011;68636;52.704;6.536;2023-12-20T03:38:46;18.50;;;1.90;;
58338;SDS011;68636;52.704;6.536;2023-12-20T03:41:12;26.10;;;2.90;;
58338;SDS011;68636;52.704;6.536;2023-12-20T03:43:38;16.67;;;1.52;;
58338;SDS011;68636;52.704;6.536;2023-12-20T03:46:04;18.50;;;1.75;;
58338;SDS011;68636;52.704;6.536;2023-12-20T03:48:30;22.20;;;1.83;;
58338;SDS011;68636;52.704;6.536;2023-12-20T03:50:57;25.50;;;2.00;;
58338;SDS011;68636;52.704;6.536;2023-12-20T03:53:23;19.13;;;2.10;;
58338;SDS011;68636;52.704;6.536;2023-12-20T03:55:49;25.90;;;2.40;;
58338;SDS011;68636;52.704;6.536;2023-12-20T03:58:15;19.33;;;2.10;;
58338;SDS011;68636;52.704;6.536;2023-12-20T04:00:41;20.73;;;1.90;;
58338;SDS011;68636;52.704;6.536;2023-12-20T04:03:07;28.02;;;2.85;;
58338;SDS011;68636;52.704;6.536;2023-12-20T04:05:33;26.67;;;2.00;;
58338;SDS011;68636;52.704;6.536;2023-12-20T04:08:00;28.15;;;2.03;;
58338;SDS011;68636;52.704;6.536;2023-12-20T04:12:53;18.30;;;1.80;;
58338;SDS011;68636;52.704;6.536;2023-12-20T04:15:20;29.98;;;2.10;;
58338;SDS011;68636;52.704;6.536;2023-12-20T04:17:46;20.40;;;1.65;;
58338;SDS011;68636;52.704;6.536;2023-12-20T04:20:12;22.30;;;2.47;;
58338;SDS011;68636;52.704;6.536;2023-12-20T04:22:38;16.27;;;1.90;;
58338;SDS011;68636;52.704;6.536;2023-12-20T04:25:04;12.55;;;1.70;;
58338;SDS011;68636;52.704;6.536;2023-12-20T04:27:30;12.77;;;1.48;;
58338;SDS011;68636;52.704;6.536;2023-12-20T04:29:56;21.67;;;2.03;;
58338;SDS011;68636;52.704;6.536;2023-12-20T04:32:22;22.48;;;2.13;;
58338;SDS011;68636;52.704;6.536;2023-12-20T04:34:52;18.70;;;1.98;;
58338;SDS011;68636;52.704;6.536;2023-12-20T04:37:18;17.60;;;1.65;;
58338;SDS011;68636;52.704;6.536;2023-12-20T04:39:44;24.13;;;2.47;;
58338;SDS011;68636;52.704;6.536;2023-12-20T04:42:10;18.25;;;1.65;;
58338;SDS011;68636;52.704;6.536;2023-12-20T04:44:36;21.70;;;2.50;;
58338;SDS011;68636;52.704;6.536;2023-12-20T04:47:02;18.73;;;1.67;;
58338;SDS011;68636;52.704;6.536;2023-12-20T04:49:28;27.30;;;1.83;;
58338;SDS011;68636;52.704;6.536;2023-12-20T04:51:54;18.30;;;2.05;;
58338;SDS011;68636;52.704;6.536;2023-12-20T04:54:20;22.63;;;2.87;;
58338;SDS011;68636;52.704;6.536;2023-12-20T04:56:47;20.20;;;1.67;;
58338;SDS011;68636;52.704;6.536;2023-12-20T04:59:13;22.00;;;2.42;;
58338;SDS011;68636;52.704;6.536;2023-12-20T05:01:39;21.35;;;2.20;;
58338;SDS011;68636;52.704;6.536;2023-12-20T05:04:05;21.02;;;2.53;;
58338;SDS011;68636;52.704;6.536;2023-12-20T05:06:31;35.38;;;3.58;;
58338;SDS011;68636;52.704;6.536;2023-12-20T05:08:57;19.13;;;2.10;;
58338;SDS011;68636;52.704;6.536;2023-12-20T05:11:23;20.30;;;2.33;;
58338;SDS011;68636;52.704;6.536;2023-12-20T05:13:49;18.02;;;2.17;;
58338;SDS011;68636;52.704;6.536;2023-12-20T05:16:15;20.38;;;2.30;;
58338;SDS011;68636;52.704;6.536;2023-12-20T05:18:45;18.33;;;2.40;;
58338;SDS011;68636;52.704;6.536;2023-12-20T05:21:11;18.48;;;1.98;;
58338;SDS011;68636;52.704;6.536;2023-12-20T05:23:37;17.50;;;2.20;;
58338;SDS011;68636;52.704;6.536;2023-12-20T05:26:03;19.88;;;2.72;;
58338;SDS011;68636;52.704;6.536;2023-12-20T05:28:29;19.42;;;2.13;;
58338;SDS011;68636;52.704;6.536;2023-12-20T05:30:55;26.40;;;2.17;;
58338;SDS011;68636;52.704;6.536;2023-12-20T05:33:22;20.20;;;2.00;;
58338;SDS011;68636;52.704;6.536;2023-12-20T05:35:48;13.48;;;1.48;;
58338;SDS011;68636;52.704;6.536;2023-12-20T05:38:14;25.80;;;2.65;;
58338;SDS011;68636;52.704;6.536;2023-12-20T05:40:40;16.85;;;2.30;;
58338;SDS011;68636;52.704;6.536;2023-12-20T05:43:06;21.33;;;1.77;;
58338;SDS011;68636;52.704;6.536;2023-12-20T05:45:32;26.67;;;2.40;;
58338;SDS011;68636;52.704;6.536;2023-12-20T05:47:58;19.50;;;3.38;;
58338;SDS011;68636;52.704;6.536;2023-12-20T05:50:24;27.75;;;2.33;;
58338;SDS011;68636;52.704;6.536;2023-12-20T05:52:50;20.63;;;2.50;;
58338;SDS011;68636;52.704;6.536;2023-12-20T05:55:16;21.70;;;2.05;;
58338;SDS011;68636;52.704;6.536;2023-12-20T05:57:42;19.02;;;2.20;;
58338;SDS011;68636;52.704;6.536;2023-12-20T06:00:09;25.85;;;2.15;;
58338;SDS011;68636;52.704;6.536;2023-12-20T06:02:35;16.55;;;1.48;;
58338;SDS011;68636;52.704;6.536;2023-12-20T06:05:05;16.30;;;1.42;;
58338;SDS011;68636;52.704;6.536;2023-12-20T06:07:31;18.23;;;1.90;;
58338;SDS011;68636;52.704;6.536;2023-12-20T06:09:57;17.25;;;1.67;;
58338;SDS011;68636;52.704;6.536;2023-12-20T06:12:23;27.83;;;3.47;;
58338;SDS011;68636;52.704;6.536;2023-12-20T06:14:51;16.63;;;1.58;;
58338;SDS011;68636;52.704;6.536;2023-12-20T06:17:17;21.70;;;2.63;;
58338;SDS011;68636;52.704;6.536;2023-12-20T06:19:43;18.08;;;1.85;;
58338;SDS011;68636;52.704;6.536;2023-12-20T06:22:13;21.42;;;2.17;;
58338;SDS011;68636;52.704;6.536;2023-12-20T06:24:39;16.70;;;1.88;;
58338;SDS011;68636;52.704;6.536;2023-12-20T06:27:05;19.73;;;1.70;;
58338;SDS011;68636;52.704;6.536;2023-12-20T06:29:31;20.17;;;2.13;;
58338;SDS011;68636;52.704;6.536;2023-12-20T06:31:57;15.60;;;1.60;;
58338;SDS011;68636;52.704;6.536;2023-12-20T06:34:23;16.85;;;2.00;;
58338;SDS011;68636;52.704;6.536;2023-12-20T06:36:49;15.02;;;1.60;;
58338;SDS011;68636;52.704;6.536;2023-12-20T06:39:15;16.88;;;1.70;;
58338;SDS011;68636;52.704;6.536;2023-12-20T06:41:41;11.07;;;1.45;;
58338;SDS011;68636;52.704;6.536;2023-12-20T06:44:08;19.15;;;1.70;;
58338;SDS011;68636;52.704;6.536;2023-12-20T06:46:34;13.48;;;1.38;;
58338;SDS011;68636;52.704;6.536;2023-12-20T06:49:00;15.20;;;1.70;;
58338;SDS011;68636;52.704;6.536;2023-12-20T06:51:27;21.90;;;2.22;;
58338;SDS011;68636;52.704;6.536;2023-12-20T06:53:55;21.75;;;2.53;;
58338;SDS011;68636;52.704;6.536;2023-12-20T06:56:21;21.17;;;1.80;;
58338;SDS011;68636;52.704;6.536;2023-12-20T06:58:48;12.18;;;1.27;;
58338;SDS011;68636;52.704;6.536;2023-12-20T07:01:14;17.33;;;2.42;;
58338;SDS011;68636;52.704;6.536;2023-12-20T07:03:40;20.17;;;1.67;;
58338;SDS011;68636;52.704;6.536;2023-12-20T07:06:07;12.95;;;1.40;;
58338;SDS011;68636;52.704;6.536;2023-12-20T07:08:33;13.83;;;2.10;;
58338;SDS011;68636;52.704;6.536;2023-12-20T07:10:59;19.30;;;1.65;;
58338;SDS011;68636;52.704;6.536;2023-12-20T07:13:25;13.35;;;2.10;;
58338;SDS011;68636;52.704;6.536;2023-12-20T07:15:51;17.15;;;2.25;;
58338;SDS011;68636;52.704;6.536;2023-12-20T07:18:17;12.60;;;1.30;;
58338;SDS011;68636;52.704;6.536;2023-12-20T07:20:44;18.25;;;2.42;;
58338;SDS011;68636;52.704;6.536;2023-12-20T07:23:10;16.35;;;1.90;;
58338;SDS011;68636;52.704;6.536;2023-12-20T07:25:36;20.27;;;2.63;;
58338;SDS011;68636;52.704;6.536;2023-12-20T07:28:02;16.35;;;1.50;;
58338;SDS011;68636;52.704;6.536;2023-12-20T07:30:28;17.33;;;2.53;;
58338;SDS011;68636;52.704;6.536;2023-12-20T07:32:55;25.40;;;2.70;;
58338;SDS011;68636;52.704;6.536;2023-12-20T07:35:21;23.58;;;2.05;;
58338;SDS011;68636;52.704;6.536;2023-12-20T07:37:47;15.27;;;2.10;;
58338;SDS011;68636;52.704;6.536;2023-12-20T07:40:13;15.85;;;1.45;;
58338;SDS011;68636;52.704;6.536;2023-12-20T07:42:42;19.42;;;2.60;;
58338;SDS011;68636;52.704;6.536;2023-12-20T07:45:08;21.67;;;2.17;;
58338;SDS011;68636;52.704;6.536;2023-12-20T07:47:35;15.65;;;1.88;;
58338;SDS011;68636;52.704;6.536;2023-12-20T07:50:02;15.45;;;2.15;;
58338;SDS011;68636;52.704;6.536;2023-12-20T07:52:28;25.35;;;2.08;;
58338;SDS011;68636;52.704;6.536;2023-12-20T07:54:54;15.05;;;1.52;;
58338;SDS011;68636;52.704;6.536;2023-12-20T07:57:21;16.67;;;1.92;;
58338;SDS011;68636;52.704;6.536;2023-12-20T07:59:47;18.45;;;2.03;;
58338;SDS011;68636;52.704;6.536;2023-12-20T08:02:13;25.73;;;2.50;;
58338;SDS011;68636;52.704;6.536;2023-12-20T08:04:39;16.33;;;1.92;;
58338;SDS011;68636;52.704;6.536;2023-12-20T08:07:06;18.42;;;2.10;;
58338;SDS011;68636;52.704;6.536;2023-12-20T08:09:32;19.67;;;2.05;;
58338;SDS011;68636;52.704;6.536;2023-12-20T08:12:01;20.08;;;2.08;;
58338;SDS011;68636;52.704;6.536;2023-12-20T08:14:27;16.02;;;1.88;;
58338;SDS011;68636;52.704;6.536;2023-12-20T08:16:54;18.70;;;1.80;;
58338;SDS011;68636;52.704;6.536;2023-12-20T08:19:20;20.38;;;2.30;;
58338;SDS011;68636;52.704;6.536;2023-12-20T08:21:46;19.05;;;2.97;;
58338;SDS011;68636;52.704;6.536;2023-12-20T08:24:12;19.90;;;1.92;;
58338;SDS011;68636;52.704;6.536;2023-12-20T08:26:38;18.55;;;2.17;;
58338;SDS011;68636;52.704;6.536;2023-12-20T08:29:04;22.15;;;2.05;;
58338;SDS011;68636;52.704;6.536;2023-12-20T08:31:30;22.75;;;2.55;;
58338;SDS011;68636;52.704;6.536;2023-12-20T08:33:56;17.73;;;2.95;;
58338;SDS011;68636;52.704;6.536;2023-12-20T08:36:22;20.48;;;2.45;;
58338;SDS011;68636;52.704;6.536;2023-12-20T08:38:49;24.55;;;3.00;;
58338;SDS011;68636;52.704;6.536;2023-12-20T08:41:16;20.23;;;2.10;;
58338;SDS011;68636;52.704;6.536;2023-12-20T08:43:42;18.52;;;2.22;;
58338;SDS011;68636;52.704;6.536;2023-12-20T08:46:08;17.55;;;2.65;;
58338;SDS011;68636;52.704;6.536;2023-12-20T08:48:35;20.92;;;2.35;;
58338;SDS011;68636;52.704;6.536;2023-12-20T08:51:01;20.85;;;2.28;;
58338;SDS011;68636;52.704;6.536;2023-12-20T08:53:27;23.10;;;1.95;;
58338;SDS011;68636;52.704;6.536;2023-12-20T08:55:53;22.88;;;2.78;;
58338;SDS011;68636;52.704;6.536;2023-12-20T08:58:19;22.58;;;2.20;;
58338;SDS011;68636;52.704;6.536;2023-12-20T09:00:45;22.65;;;2.25;;
58338;SDS011;68636;52.704;6.536;2023-12-20T09:03:11;19.85;;;1.67;;
58338;SDS011;68636;52.704;6.536;2023-12-20T09:05:37;24.33;;;2.80;;
58338;SDS011;68636;52.704;6.536;2023-12-20T09:08:03;18.48;;;1.90;;
58338;SDS011;68636;52.704;6.536;2023-12-20T09:10:30;21.07;;;2.03;;
58338;SDS011;68636;52.704;6.536;2023-12-20T09:12:56;23.35;;;2.55;;
58338;SDS011;68636;52.704;6.536;2023-12-20T09:15:26;17.70;;;2.00;;
58338;SDS011;68636;52.704;6.536;2023-12-20T09:17:53;21.90;;;1.83;;
58338;SDS011;68636;52.704;6.536;2023-12-20T09:20:19;21.08;;;2.83;;
58338;SDS011;68636;52.704;6.536;2023-12-20T09:22:45;23.00;;;2.53;;
58338;SDS011;68636;52.704;6.536;2023-12-20T09:25:11;18.63;;;1.80;;
58338;SDS011;68636;52.704;6.536;2023-12-20T09:30:05;23.05;;;2.40;;
58338;SDS011;68636;52.704;6.536;2023-12-20T09:32:31;24.30;;;2.30;;
58338;SDS011;68636;52.704;6.536;2023-12-20T09:34:57;16.30;;;1.80;;
58338;SDS011;68636;52.704;6.536;2023-12-20T09:37:27;17.67;;;1.93;;
58338;SDS011;68636;52.704;6.536;2023-12-20T09:39:53;24.13;;;2.53;;
58338;SDS011;68636;52.704;6.536;2023-12-20T09:45:04;14.95;;;1.80;;
58338;SDS011;68636;52.704;6.536;2023-12-20T09:47:33;18.17;;;2.90;;
58338;SDS011;68636;52.704;6.536;2023-12-20T09:50:00;15.27;;;2.17;;
58338;SDS011;68636;52.704;6.536;2023-12-20T09:52:26;18.40;;;2.05;;
58338;SDS011;68636;52.704;6.536;2023-12-20T09:54:52;18.55;;;1.80;;
58338;SDS011;68636;52.704;6.536;2023-12-20T09:57:20;15.23;;;2.17;;
58338;SDS011;68636;52.704;6.536;2023-12-20T09:59:46;17.23;;;2.28;;
58338;SDS011;68636;52.704;6.536;2023-12-20T10:02:12;16.55;;;2.20;;
58338;SDS011;68636;52.704;6.536;2023-12-20T10:04:42;16.77;;;1.95;;
58338;SDS011;68636;52.704;6.536;2023-12-20T10:07:15;19.65;;;2.45;;
58338;SDS011;68636;52.704;6.536;2023-12-20T10:09:42;18.00;;;2.72;;
58338;SDS011;68636;52.704;6.536;2023-12-20T10:12:08;19.35;;;2.30;;
58338;SDS011;68636;52.704;6.536;2023-12-20T10:14:35;14.05;;;1.65;;
58338;SDS011;68636;52.704;6.536;2023-12-20T10:17:04;11.20;;;0.90;;
58338;SDS011;68636;52.704;6.536;2023-12-20T10:19:31;8.57;;;0.88;;
58338;SDS011;68636;52.704;6.536;2023-12-20T10:21:57;8.50;;;1.38;;
58338;SDS011;68636;52.704;6.536;2023-12-20T10:24:25;10.13;;;0.80;;
58338;SDS011;68636;52.704;6.536;2023-12-20T10:27:08;11.43;;;1.02;;
58338;SDS011;68636;52.704;6.536;2023-12-20T10:29:34;9.70;;;0.75;;
58338;SDS011;68636;52.704;6.536;2023-12-20T10:34:45;7.60;;;0.45;;
58338;SDS011;68636;52.704;6.536;2023-12-20T10:37:11;5.15;;;0.50;;
58338;SDS011;68636;52.704;6.536;2023-12-20T10:39:37;9.63;;;0.47;;
58338;SDS011;68636;52.704;6.536;2023-12-20T10:42:04;10.10;;;0.40;;
58338;SDS011;68636;52.704;6.536;2023-12-20T10:44:31;6.15;;;0.50;;
58338;SDS011;68636;52.704;6.536;2023-12-20T10:46:57;12.70;;;0.88;;
58338;SDS011;68636;52.704;6.536;2023-12-20T10:49:24;5.38;;;0.70;;
58338;SDS011;68636;52.704;6.536;2023-12-20T10:54:17;8.27;;;0.55;;
58338;SDS011;68636;52.704;6.536;2023-12-20T10:56:43;8.93;;;0.50;;
58338;SDS011;68636;52.704;6.536;2023-12-20T10:59:11;6.28;;;0.50;;
58338;SDS011;68636;52.704;6.536;2023-12-20T11:01:37;7.15;;;0.95;;
58338;SDS011;68636;52.704;6.536;2023-12-20T11:04:04;12.20;;;0.50;;
58338;SDS011;68636;52.704;6.536;2023-12-20T11:06:35;11.23;;;0.70;;
58338;SDS011;68636;52.704;6.536;2023-12-20T11:09:25;8.57;;;0.45;;
58338;SDS011;68636;52.704;6.536;2023-12-20T11:14:47;12.80;;;0.50;;
58338;SDS011;68636;52.704;6.536;2023-12-20T11:17:14;10.02;;;0.45;;
58338;SDS011;68636;52.704;6.536;2023-12-20T11:22:27;11.70;;;0.63;;
58338;SDS011;68636;52.704;6.536;2023-12-20T11:24:53;9.73;;;0.50;;
58338;SDS011;68636;52.704;6.536;2023-12-20T11:27:21;5.57;;;0.50;;
58338;SDS011;68636;52.704;6.536;2023-12-20T11:29:57;5.30;;;0.30;;
58338;SDS011;68636;52.704;6.536;2023-12-20T11:34:53;4.25;;;0.40;;
58338;SDS011;68636;52.704;6.536;2023-12-20T11:37:20;6.10;;;0.40;;
58338;SDS011;68636;52.704;6.536;2023-12-20T11:39:54;11.73;;;0.90;;
58338;SDS011;68636;52.704;6.536;2023-12-20T11:42:21;5.82;;;0.60;;
58338;SDS011;68636;52.704;6.536;2023-12-20T11:44:47;8.15;;;0.70;;
58338;SDS011;68636;52.704;6.536;2023-12-20T11:47:13;9.70;;;0.60;;
58338;SDS011;68636;52.704;6.536;2023-12-20T11:52:06;11.35;;;0.85;;
58338;SDS011;68636;52.704;6.536;2023-12-20T11:54:33;13.02;;;0.98;;
58338;SDS011;68636;52.704;6.536;2023-12-20T11:56:59;12.65;;;0.43;;
58338;SDS011;68636;52.704;6.536;2023-12-20T11:59:25;9.82;;;0.60;;
58338;SDS011;68636;52.704;6.536;2023-12-20T12:01:51;7.00;;;0.70;;
58338;SDS011;68636;52.704;6.536;2023-12-20T12:04:17;15.70;;;1.05;;
58338;SDS011;68636;52.704;6.536;2023-12-20T12:06:44;9.68;;;0.75;;
58338;SDS011;68636;52.704;6.536;2023-12-20T12:09:10;8.30;;;0.50;;
58338;SDS011;68636;52.704;6.536;2023-12-20T12:11:36;9.17;;;1.00;;
58338;SDS011;68636;52.704;6.536;2023-12-20T12:14:03;6.57;;;0.47;;
58338;SDS011;68636;52.704;6.536;2023-12-20T12:16:29;11.17;;;0.50;;
58338;SDS011;68636;52.704;6.536;2023-12-20T12:18:56;6.65;;;0.40;;
58338;SDS011;68636;52.704;6.536;2023-12-20T12:21:22;9.32;;;0.60;;
58338;SDS011;68636;52.704;6.536;2023-12-20T12:23:48;3.67;;;0.40;;
58338;SDS011;68636;52.704;6.536;2023-12-20T12:26:14;7.47;;;0.60;;
58338;SDS011;68636;52.704;6.536;2023-12-20T12:28:41;6.25;;;0.70;;
58338;SDS011;68636;52.704;6.536;2023-12-20T12:31:07;10.05;;;0.40;;
58338;SDS011;68636;52.704;6.536;2023-12-20T12:33:34;10.40;;;0.70;;
58338;SDS011;68636;52.704;6.536;2023-12-20T12:36:01;4.70;;;0.50;;
58338;SDS011;68636;52.704;6.536;2023-12-20T12:38:29;7.90;;;0.57;;
58338;SDS011;68636;52.704;6.536;2023-12-20T12:40:55;8.10;;;0.50;;
58338;SDS011;68636;52.704;6.536;2023-12-20T12:43:22;10.10;;;0.50;;
58338;SDS011;68636;52.704;6.536;2023-12-20T12:45:48;9.98;;;0.52;;
58338;SDS011;68636;52.704;6.536;2023-12-20T12:48:15;12.05;;;0.80;;
58338;SDS011;68636;52.704;6.536;2023-12-20T12:50:41;11.05;;;0.55;;
58338;SDS011;68636;52.704;6.536;2023-12-20T12:53:07;10.13;;;0.60;;
58338;SDS011;68636;52.704;6.536;2023-12-20T12:55:34;9.93;;;0.70;;
58338;SDS011;68636;52.704;6.536;2023-12-20T12:58:01;10.50;;;0.55;;
58338;SDS011;68636;52.704;6.536;2023-12-20T13:00:27;10.73;;;1.13;;
58338;SDS011;68636;52.704;6.536;2023-12-20T13:02:53;6.68;;;0.50;;
58338;SDS011;68636;52.704;6.536;2023-12-20T13:05:19;14.70;;;0.60;;
58338;SDS011;68636;52.704;6.536;2023-12-20T13:07:45;5.38;;;0.40;;
58338;SDS011;68636;52.704;6.536;2023-12-20T13:12:42;11.98;;;0.90;;
58338;SDS011;68636;52.704;6.536;2023-12-20T13:15:08;15.87;;;0.50;;
58338;SDS011;68636;52.704;6.536;2023-12-20T13:17:34;9.37;;;0.40;;
58338;SDS011;68636;52.704;6.536;2023-12-20T13:20:00;11.15;;;0.60;;
58338;SDS011;68636;52.704;6.536;2023-12-20T13:22:26;4.88;;;0.50;;
58338;SDS011;68636;52.704;6.536;2023-12-20T13:24:53;9.30;;;0.88;;
58338;SDS011;68636;52.704;6.536;2023-12-20T13:27:19;9.07;;;0.50;;
58338;SDS011;68636;52.704;6.536;2023-12-20T13:29:45;7.05;;;0.45;;
58338;SDS011;68636;52.704;6.536;2023-12-20T13:32:11;12.25;;;1.13;;
58338;SDS011;68636;52.704;6.536;2023-12-20T13:34:37;8.57;;;0.98;;
58338;SDS011;68636;52.704;6.536;2023-12-20T13:37:03;10.05;;;0.95;;
58338;SDS011;68636;52.704;6.536;2023-12-20T13:39:29;7.18;;;0.50;;
58338;SDS011;68636;52.704;6.536;2023-12-20T13:41:56;9.85;;;0.55;;
58338;SDS011;68636;52.704;6.536;2023-12-20T13:44:22;5.77;;;0.40;;
58338;SDS011;68636;52.704;6.536;2023-12-20T13:46:49;4.75;;;0.63;;
58338;SDS011;68636;52.704;6.536;2023-12-20T13:49:15;9.13;;;0.47;;
58338;SDS011;68636;52.704;6.536;2023-12-20T13:51:41;8.82;;;0.50;;
58338;SDS011;68636;52.704;6.536;2023-12-20T13:54:08;9.63;;;0.50;;
58338;SDS011;68636;52.704;6.536;2023-12-20T13:56:36;7.88;;;0.45;;
58338;SDS011;68636;52.704;6.536;2023-12-20T13:59:02;7.38;;;0.60;;
58338;SDS011;68636;52.704;6.536;2023-12-20T14:01:28;7.85;;;0.38;;
58338;SDS011;68636;52.704;6.536;2023-12-20T14:03:54;9.48;;;0.52;;
58338;SDS011;68636;52.704;6.536;2023-12-20T14:06:21;8.77;;;0.80;;
58338;SDS011;68636;52.704;6.536;2023-12-20T14:08:47;10.82;;;0.75;;
58338;SDS011;68636;52.704;6.536;2023-12-20T14:11:13;8.85;;;0.70;;
58338;SDS011;68636;52.704;6.536;2023-12-20T14:16:06;9.45;;;1.00;;
58338;SDS011;68636;52.704;6.536;2023-12-20T14:18:32;12.23;;;1.00;;
58338;SDS011;68636;52.704;6.536;2023-12-20T14:20:58;8.38;;;0.80;;
58338;SDS011;68636;52.704;6.536;2023-12-20T14:23:25;9.40;;;0.60;;
58338;SDS011;68636;52.704;6.536;2023-12-20T14:25:51;10.23;;;0.90;;
58338;SDS011;68636;52.704;6.536;2023-12-20T14:28:17;11.90;;;1.08;;
58338;SDS011;68636;52.704;6.536;2023-12-20T14:30:43;11.80;;;0.80;;
58338;SDS011;68636;52.704;6.536;2023-12-20T14:33:09;10.48;;;0.88;;
58338;SDS011;68636;52.704;6.536;2023-12-20T14:35:35;13.77;;;0.88;;
58338;SDS011;68636;52.704;6.536;2023-12-20T14:38:01;15.48;;;1.13;;
58338;SDS011;68636;52.704;6.536;2023-12-20T14:40:28;8.57;;;1.15;;
58338;SDS011;68636;52.704;6.536;2023-12-20T14:42:54;13.10;;;1.55;;
58338;SDS011;68636;52.704;6.536;2023-12-20T14:45:21;14.95;;;1.90;;
58338;SDS011;68636;52.704;6.536;2023-12-20T14:47:48;11.05;;;1.35;;
58338;SDS011;68636;52.704;6.536;2023-12-20T14:50:14;16.67;;;1.48;;
58338;SDS011;68636;52.704;6.536;2023-12-20T14:52:43;20.80;;;1.73;;
58338;SDS011;68636;52.704;6.536;2023-12-20T14:55:10;15.52;;;2.85;;
58338;SDS011;68636;52.704;6.536;2023-12-20T14:57:37;11.40;;;1.37;;
58338;SDS011;68636;52.704;6.536;2023-12-20T15:00:04;15.30;;;1.55;;
58338;SDS011;68636;52.704;6.536;2023-12-20T15:02:30;17.00;;;1.40;;
58338;SDS011;68636;52.704;6.536;2023-12-20T15:04:56;17.73;;;1.60;;
58338;SDS011;68636;52.704;6.536;2023-12-20T15:07:23;20.58;;;1.63;;